createdAt,value
2018-12-06T00:00:58.241Z,63.11
2018-12-06T00:15:51.131Z,63.41
2018-12-06T00:30:53.078Z,63.43
2018-12-06T00:45:52.927Z,63.24
2018-12-06T01:00:52.919Z,63.21
2018-12-06T01:15:50.874Z,63.46
2018-12-06T01:30:52.481Z,63.04
2018-12-06T01:45:51.227Z,62.75
2018-12-06T02:00:52.131Z,62.12
2018-12-06T02:15:51.591Z,62.10
2018-12-06T02:30:52.197Z,61.53
2018-12-06T02:45:51.266Z,61.91
2018-12-06T03:00:53.771Z,61.50
2018-12-06T03:15:51.166Z,61.72
2018-12-06T03:30:54.633Z,61.38
2018-12-06T03:45:51.429Z,61.51
2018-12-06T04:00:53.996Z,62.01
2018-12-06T04:15:56.626Z,61.98
2018-12-06T04:30:53.758Z,62.55
2018-12-06T04:45:54.126Z,62.37
2018-12-06T05:00:52.505Z,62.77
2018-12-06T05:15:53.837Z,63.54
2018-12-06T05:30:50.836Z,63.55
2018-12-06T05:45:50.675Z,62.34
2018-12-06T06:00:50.632Z,62.11
2018-12-06T06:15:51.576Z,62.42
2018-12-06T06:30:56.186Z,63.28
2018-12-06T06:45:51.483Z,63.23
2018-12-06T07:00:50.763Z,63.11
2018-12-06T07:15:50.730Z,61.97
2018-12-06T07:30:52.061Z,61.00
2018-12-06T07:45:51.091Z,59.01
2018-12-06T08:15:50.867Z,54.81
2018-12-06T08:30:53.816Z,52.40
2018-12-06T08:45:53.340Z,47.65
2018-12-06T09:00:53.244Z,46.51
2018-12-06T09:15:53.157Z,48.28
2018-12-06T09:30:51.409Z,48.22
2018-12-06T09:45:51.474Z,45.59
2018-12-06T10:00:51.344Z,44.31
2018-12-06T10:15:51.199Z,42.38
2018-12-06T10:30:54.018Z,42.15
2018-12-06T10:45:51.459Z,41.47
2018-12-06T11:00:58.621Z,41.65
2018-12-06T11:15:51.999Z,41.61
2018-12-06T11:30:51.798Z,41.96
2018-12-06T11:45:50.606Z,42.16
2018-12-06T12:00:51.691Z,42.99
2018-12-06T12:15:53.837Z,44.04
2018-12-06T12:30:52.892Z,45.00
2018-12-06T12:45:50.981Z,46.68
2018-12-06T13:00:50.867Z,47.42
2018-12-06T13:15:50.711Z,48.74
2018-12-06T13:30:51.174Z,50.04
2018-12-06T13:45:52.432Z,51.61
2018-12-06T14:00:51.060Z,53.45
2018-12-06T14:15:52.850Z,54.97
2018-12-06T14:30:51.112Z,56.87
2018-12-06T14:45:51.120Z,57.62
2018-12-06T15:00:51.531Z,58.28
2018-12-06T15:15:51.095Z,59.32
2018-12-06T15:30:51.498Z,60.21
2018-12-06T15:45:51.398Z,61.14
2018-12-06T16:00:51.252Z,61.50
2018-12-06T16:15:51.306Z,61.52
2018-12-06T16:45:53.790Z,61.83
2018-12-06T17:00:59.394Z,63.23
2018-12-06T17:15:51.461Z,63.10
2018-12-06T17:30:50.919Z,63.79
2018-12-06T18:00:53.009Z,64.72
2018-12-06T18:15:53.698Z,64.99
2018-12-06T18:30:51.833Z,65.11
2018-12-06T18:45:50.418Z,64.62
2018-12-06T19:00:51.013Z,63.74
2018-12-06T19:15:50.923Z,65.11
2018-12-06T19:30:54.117Z,64.78
2018-12-06T19:45:53.081Z,66.14
2018-12-06T20:00:52.054Z,65.72
2018-12-06T20:15:50.895Z,65.43
2018-12-06T20:30:51.465Z,65.01
2018-12-06T20:45:54.003Z,64.39
2018-12-06T21:00:51.367Z,64.71
2018-12-06T21:15:53.873Z,65.12
2018-12-06T21:30:51.471Z,65.16
2018-12-06T21:45:51.352Z,64.85
2018-12-06T22:00:51.310Z,64.96
2018-12-06T22:15:51.304Z,65.48
2018-12-06T22:30:54.125Z,65.89
2018-12-06T22:45:59.648Z,64.74
2018-12-06T23:00:53.648Z,65.81
2018-12-06T23:15:51.398Z,66.58
2018-12-06T23:30:52.303Z,66.30
2018-12-06T23:45:50.717Z,66.60
